Flight Track Log - Related Links

Times and Time Zones

All times are in EDT time to prevent confusion due to time zone crossing. See the AAR8739 flight status page for this flight to view local times or setup timezone preferences in your user account.

Time Position Orientation Groundspeed Altitude Reporting Facility
EDT Latitude Longitude Course Direction KTS MPH feet Rate Location/Type
Sat 10:42:00 PM 37.3315 126.8617 166° South  Level Estimated
Sat 10:43:00 PM 37.2559 126.8853 166° South  Level Estimated
Sat 10:44:00 PM 37.1803 126.9089 166° South  Level Estimated
Sat 10:45:00 PM 37.1046 126.9324 166° South  Level Estimated
Sat 10:46:00 PM 37.0290 126.9559 166° South  Level Estimated
Sat 10:47:00 PM 36.9534 126.9793 166° South  Level Estimated
Sat 10:48:00 PM 36.8778 127.0027 166° South  Level Estimated
Sat 10:49:00 PM 36.8021 127.0260 166° South  Level Estimated
Sat 10:50:00 PM 36.7265 127.0493 166° South  Level Estimated
Sat 10:51:00 PM 36.6508 127.0725 166° South  Level Estimated
Sat 10:52:00 PM 36.5752 127.0957 166° South  Level Estimated
Sat 10:53:00 PM 36.4995 127.1189 166° South  Level Estimated
Sat 10:54:00 PM 36.4239 127.1420 166° South  Level Estimated
Sat 10:55:00 PM 36.3482 127.1650 166° South  Level Estimated
Sat 10:56:00 PM 36.2725 127.1880 166° South  Level Estimated
Sat 10:57:00 PM 36.1968 127.2110 166° South  Level Estimated
Sat 10:58:00 PM 36.1212 127.2339 166° South  Level Estimated
Sat 10:59:00 PM 36.0455 127.2568 166° South  Level Estimated
Sat 11:00:00 PM 35.9698 127.2796 166° South  Level Estimated
Sat 11:01:00 PM 35.8941 127.3024 166° South  Level Estimated
Sat 11:02:00 PM 35.8184 127.3252 166° South  Level Estimated
Sat 11:03:00 PM 35.7427 127.3479 166° South  Level Estimated
Sat 11:04:00 PM 35.6670 127.3706 166° South  Level Estimated
Sat 11:05:00 PM 35.5913 127.3932 166° South  Level Estimated
Sat 11:06:00 PM 35.5156 127.4157 166° South  Level Estimated
Sat 11:07:00 PM 35.4398 127.4383 166° South  Level Estimated
Sat 11:08:00 PM 35.3641 127.4608 166° South  Level Estimated
Sat 11:09:00 PM 35.2884 127.4832 166° South  Level Estimated
Sat 11:10:00 PM 35.2127 127.5056 166° South  Level Estimated
Sat 11:11:00 PM 35.1369 127.5280 166° South  Level Estimated
Sat 11:12:00 PM 35.0612 127.5503 166° South  Level Estimated
Sat 11:13:00 PM 34.9854 127.5726 166° South  Level Estimated
Sat 11:14:00 PM 34.9097 127.5948 166° South  Level Estimated
Sat 11:15:00 PM 34.8398 127.6153 166° South  Level Estimated
Sat 11:16:00 PM 34.8398 127.6153 180° South  Level Estimated
Sat 11:17:00 PM 34.8398 127.6153 180° South  Level Estimated
Sat 11:18:00 PM 34.8398 127.6153 180° South  Level Estimated
Sat 11:19:00 PM 34.8398 127.6153 180° South  Level Estimated
Sat 11:20:00 PM 34.8398 127.6153 180° South  Level Estimated
Sat 11:21:00 PM 34.8398 127.6153 180° South  Level Estimated
Sat 11:22:00 PM 34.8398 127.6153 180° South  Level Estimated
Sat 11:23:00 PM 34.8398 127.6153 180° South  Level Estimated
Sat 11:24:00 PM 34.8398 127.6153 180° South  Level Estimated

Login

Don't have an account? Register now (free) for customized features, flight alerts, and more!